Latest Weather Observations for Cape Willoughby

IDS60801

Issued at 5:21 am CST Wednesday 2 September 2026 (issued every 10 minutes, with the page automatically refreshed every 10 minutes)

About weather observations | Map of weather stations | Latest weather observations for SA | Other Formats
Station Details ID: 022803 Name: CAPE WILLOUGHBY Lat: -35.84 Lon: 138.13 Height: 55.0 m
Data from the previous 72 hours. | See also: Recent months at Cape Willoughby
Date/Time
CST
Temp
°C
App
Temp
°C
Dew
Point
°C
Rel
Hum
%
Delta-T
°C
Wind Press
QNH
hPa
Press
MSL
hPa
Rain since
9am
mm
Dir  Spd
km/h
Gust
km/h
Spd
kts
Gust
kts
02/05:00am 10.4 8.5 9.2 92 0.6 SW 9 13 5 7 1016.4 1016.4 2.6
02/04:30am 10.9 7.6 9.7 92 0.6 WSW 17 22 9 12 1016.3 1016.3 2.6
02/04:00am 10.4 7.3 9.0 91 0.7 W 15 17 8 9 1016.4 1016.4 2.6
02/03:30am 11.1 7.8 9.7 91 0.7 W 17 19 9 10 1016.4 1016.4 2.6
02/03:00am 10.8 7.8 9.4 91 0.7 W 15 17 8 9 1016.5 1016.5 2.6
02/02:30am 11.5 9.5 10.1 91 0.7 W 11 13 6 7 1016.8 1016.8 2.4
02/02:00am 11.3 9.6 9.7 90 0.8 W 9 13 5 7 1016.9 1016.9 2.4
02/01:30am 11.8 9.8 10.2 90 0.8 W 11 13 6 7 1017.0 1017.0 2.4
02/01:00am 12.0 10.1 10.4 90 0.8 W 11 13 6 7 1016.9 1016.9 2.4
02/12:30am 12.1 10.5 10.2 88 1.0 W 9 11 5 6 1016.8 1016.8 2.2
02/12:00am 12.1 10.4 10.0 87 1.1 W 9 13 5 7 1016.9 1016.9 2.2
 
Date/Time
CST
Temp
°C
App
Temp
°C
Dew
Point
°C
Rel
Hum
%
Delta-T
°C
Wind Press
QNH
hPa
Press
MSL
hPa
Rain since
9am
mm
Dir  Spd
km/h
Gust
km/h
Spd
kts
Gust
kts
01/11:30pm 12.8 10.9 10.5 86 1.2 WSW 11 15 6 8 1016.9 1016.9 2.2
01/11:00pm 12.7 11.2 10.4 86 1.2 SW 9 9 5 5 1017.0 1017.0 2.2
01/10:30pm 13.2 11.4 10.9 86 1.2 SW 11 17 6 9 1017.0 1017.0 2.2
01/10:00pm 13.2 11.0 10.9 86 1.2 SW 13 19 7 10 1016.9 1016.9 2.2
01/09:30pm 13.2 10.7 10.9 86 1.2 SW 15 19 8 10 1017.1 1017.1 2.2
01/09:00pm 13.5 11.0 11.2 86 1.2 SW 15 19 8 10 1016.9 1016.9 2.2
01/08:30pm 14.1 10.4 11.4 84 1.4 SSW 22 28 12 15 1016.2 1016.2 2.2
01/08:00pm 13.9 10.2 11.6 86 1.2 SW 22 30 12 16 1015.8 1015.8 2.2
01/07:30pm 14.0 10.4 12.0 88 1.1 SW 22 28 12 15 1015.4 1015.4 2.2
01/07:00pm 14.9 13.0 13.1 89 1.0 WSW 15 22 8 12 1015.3 1015.3 2.2
01/06:30pm 15.2 12.4 13.1 87 1.2 WNW 20 39 11 21 1014.9 1014.9 2.2
01/06:00pm 15.2 12.9 12.9 86 1.3 NW 17 20 9 11 1014.5 1014.5 2.2
01/05:30pm 15.3 12.6 12.8 85 1.4 NW 19 24 10 13 1014.2 1014.2 2.2
01/05:00pm 15.4 12.1 12.7 84 1.5 NW 22 30 12 16 1013.6 1013.6 2.2
01/04:30pm 15.5 11.0 12.6 83 1.6 NW 28 37 15 20 1013.7 1013.7 2.2
01/04:00pm 15.2 10.4 12.9 86 1.3 NW 30 39 16 21 1013.2 1013.2 2.2
01/03:30pm 14.9 9.1 12.6 86 1.3 NNW 35 48 19 26 1012.3 1012.3 2.2
01/03:00pm 15.0 7.6 12.5 85 1.4 NNW 43 57 23 31 1012.5 1012.5 2.2
01/02:34pm 15.0 8.8 12.5 85 1.4 NNW 37 56 20 30 1012.7 1012.7 2.2
01/02:30pm 15.1 8.9 12.6 85 1.4 NNW 37 50 20 27 1012.7 1012.7 2.2
01/02:24pm 15.0 9.1 12.5 85 1.4 NNW 35 50 19 27 1012.7 1012.7 2.2
01/02:00pm 15.1 11.3 12.4 84 1.5 NNW 24 32 13 17 1012.9 1012.9 2.2
01/01:50pm 14.8 11.3 12.3 85 1.4 NNW 22 30 12 16 1013.0 1013.0 2.2
01/01:30pm 15.0 10.3 12.0 82 1.6 NW 28 33 15 18 1015.0 1015.0 1.2
01/01:00pm 15.7 10.9 11.7 77 2.2 NNW 28 39 15 21 1014.8 1014.8 0.0
01/12:30pm 16.3 10.5 11.5 73 2.6 NNW 33 48 18 26 1014.6 1014.6 0.0
01/12:28pm 16.3 10.5 11.5 73 2.6 NNW 33 48 18 26 1014.5 1014.5 0.0
01/12:16pm 16.3 10.0 11.2 72 2.7 NNW 35 54 19 29 1014.9 1014.9 0.0
01/12:00pm 16.6 9.5 10.9 69 3.1 NNW 39 56 21 30 1014.5 1014.5 0.0
01/11:30am 17.1 9.2 10.9 67 3.3 NNW 43 57 23 31 1014.9 1014.9 0.0
01/11:00am 17.2 8.0 11.0 67 3.3 NNW 50 61 27 33 1015.2 1015.2 0.0
01/10:30am 17.7 9.0 11.3 66 3.5 NNW 48 61 26 33 1014.8 1014.8 0.0
01/10:28am 17.7 9.0 11.3 66 3.5 NNW 48 61 26 33 1015.0 1015.0 0.0
01/10:17am 17.6 8.0 10.7 64 3.7 NNW 52 70 28 38 1015.4 1015.4 0.0
01/10:00am 17.9 7.9 10.8 63 3.8 NNW 54 69 29 37 1015.1 1015.1 0.0
01/09:30am 16.5 8.0 10.6 68 3.1 NNW 46 57 25 31 1015.5 1015.5 0.0
01/09:15am 16.6 7.7 10.5 67 3.2 NNW 48 61 26 33 1015.4 1015.4 0.0
01/09:03am 16.7 7.0 10.5 67 3.3 NNW 52 70 28 38 1015.5 1015.5 0.0
01/09:00am 16.6 6.6 10.7 68 3.2 NNW 54 70 29 38 1015.5 1015.5 0.0
01/08:58am 16.6 6.5 10.5 67 3.2 NNW 54 70 29 38 1015.5 1015.5 0.0
01/08:48am 16.5 7.2 10.4 67 3.2 NNW 50 69 27 37 1015.6 1015.6 0.0
01/08:44am 16.6 6.8 10.2 66 3.4 NNW 52 69 28 37 1015.6 1015.6 0.0
01/08:30am 16.2 7.2 10.3 68 3.1 NNW 48 67 26 36 1015.6 1015.6 0.0
01/08:26am 16.1 7.1 10.4 69 3.0 NNW 48 67 26 36 1015.6 1015.6 0.0
01/08:00am 15.8 6.6 10.8 72 2.7 NNW 50 65 27 35 1015.9 1016.0 0.0
01/07:30am 15.3 5.2 10.5 73 2.5 NNW 54 69 29 37 1015.8 1015.9 0.0
01/07:00am 15.4 5.6 10.2 71 2.7 NNW 52 63 28 34 1015.7 1015.8 0.0
01/06:30am 15.2 5.4 10.0 71 2.7 NNW 52 61 28 33 1015.9 1016.0 0.0
01/06:00am 15.3 6.6 9.9 70 2.8 NNW 46 57 25 31 1016.1 1016.2 0.0
01/05:30am 14.9 6.7 9.7 71 2.7 NNW 43 54 23 29 1016.6 1016.7 0.0
01/05:06am 14.8 7.1 10.2 74 2.4 NNW 41 52 22 28 1017.0 1017.1 0.0
01/05:00am 14.9 7.2 10.3 74 2.4 NNW 41 56 22 30 1016.9 1017.0 0.0
01/04:56am 14.7 7.8 10.3 75 2.3 NNW 37 56 20 30 1017.0 1017.1 0.0
01/04:30am 14.5 7.3 10.5 77 2.1 NNW 39 48 21 26 1017.0 1017.1 0.0
01/04:00am 14.2 6.6 10.6 79 1.9 NNW 41 56 22 30 1017.3 1017.4 0.0
01/03:30am 14.3 7.5 10.5 78 2.0 NNW 37 46 20 25 1017.7 1017.8 0.0
01/03:00am 14.3 8.4 10.5 78 2.0 NNW 32 37 17 20 1018.4 1018.5 0.0
01/02:30am 14.2 8.0 10.2 77 2.1 NNW 33 37 18 20 1019.0 1019.1 0.0
01/02:00am 14.1 9.3 10.3 78 2.0 NNW 26 32 14 17 1019.7 1019.8 0.0
01/01:30am 14.3 9.6 10.5 78 2.0 NNW 26 30 14 16 1020.1 1020.1 0.0
01/01:00am 14.2 9.9 10.6 79 1.9 NNW 24 26 13 14 1020.6 1020.6 0.0
01/12:30am 14.4 9.3 10.6 78 2.0 NNW 28 32 15 17 1020.9 1020.9 0.0
01/12:00am 14.4 9.8 11.0 80 1.8 NNW 26 30 14 16 1021.4 1021.4 0.0
 
Date/Time
CST
Temp
°C
App
Temp
°C
Dew
Point
°C
Rel
Hum
%
Delta-T
°C
Wind Press
QNH
hPa
Press
MSL
hPa
Rain since
9am
mm
Dir  Spd
km/h
Gust
km/h
Spd
kts
Gust
kts
31/11:30pm 13.9 10.0 10.9 82 1.6 N 22 24 12 13 1021.8 1021.8 0.0
31/11:00pm 13.6 10.3 10.8 83 1.5 N 19 20 10 11 1022.5 1022.5 0.0
31/10:30pm 13.3 10.8 11.2 87 1.1 N 15 19 8 10 1023.2 1023.2 0.0
31/10:00pm 13.1 11.3 10.8 86 1.2 N 11 13 6 7 1023.7 1023.7 0.0
31/09:30pm 13.5 12.6 11.2 86 1.2 N 7 9 4 5 1024.0 1024.0 0.0
31/09:00pm 13.7 12.6 11.9 89 1.0 N 9 11 5 6 1024.1 1024.1 0.0
31/08:30pm 13.8 12.3 12.0 89 1.0 NNE 11 13 6 7 1024.2 1024.2 0.0
31/08:00pm 13.6 12.7 11.5 87 1.1 N 7 9 4 5 1024.4 1024.4 0.0
31/07:30pm 13.6 12.9 11.5 87 1.1 N 6 7 3 4 1024.8 1024.8 0.0
31/07:00pm 13.8 13.0 11.8 88 1.1 NE 7 9 4 5 1025.0 1025.0 0.0
31/06:30pm 13.7 13.1 11.6 87 1.1 NNE 6 9 3 5 1025.2 1025.2 0.0
31/06:00pm 13.5 12.9 11.6 88 1.0 N 6 6 3 3 1025.3 1025.3 0.0
31/05:30pm 14.0 13.3 11.9 87 1.1 NE 7 9 4 5 1025.4 1025.4 0.0
31/05:00pm 14.2 13.6 12.2 88 1.1 NE 7 9 4 5 1025.6 1025.6 0.0
31/04:30pm 14.6 14.6 12.5 87 1.1 ENE 4 6 2 3 1025.9 1025.9 0.0
31/04:00pm 14.8 14.5 12.8 88 1.1 NE 6 7 3 4 1026.1 1026.1 0.0
31/03:30pm 14.9 14.7 12.9 88 1.1 NNE 6 9 3 5 1026.6 1026.6 0.0
31/03:00pm 14.9 14.6 13.3 90 0.9 NNE 7 9 4 5 1026.7 1026.7 0.0
31/02:30pm 14.5 14.4 13.2 92 0.7 NE 6 7 3 4 1027.1 1027.1 0.0
31/02:00pm 13.8 13.3 12.5 92 0.7 NE 7 9 4 5 1027.4 1027.4 0.0
31/01:30pm 14.4 13.7 13.1 92 0.7 NE 9 11 5 6 1028.0 1028.0 0.0
31/01:00pm 14.1 13.7 13.0 93 0.6 NE 7 9 4 5 1028.6 1028.6 0.0
31/12:30pm 13.4 12.8 12.3 93 0.6 NNE 7 9 4 5 1029.2 1029.2 0.0
31/12:00pm 13.2 12.6 12.3 94 0.5 NNE 7 9 4 5 1029.8 1029.8 0.0
31/11:30am 13.3 12.8 12.5 95 0.4 NNE 7 11 4 6 1030.4 1030.4 0.0
31/11:00am 12.4 11.6 11.6 95 0.4 ENE 7 9 4 5 1030.7 1030.7 0.0
31/10:30am 12.4 11.6 11.6 95 0.4 NE 7 9 4 5 1030.9 1031.0 0.0
31/10:00am 12.3 11.1 11.5 95 0.4 NE 9 13 5 7 1031.1 1031.2 0.0
31/09:30am 12.1 10.4 11.3 95 0.4 NE 11 15 6 8 1031.2 1031.3 0.0
31/09:00am 12.1 10.4 11.3 95 0.4 NE 11 15 6 8 1031.3 1031.4 0.0
31/08:30am 12.3 10.3 11.5 95 0.4 ENE 13 17 7 9 1031.4 1031.5 0.0
31/08:00am 12.1 9.7 11.5 96 0.3 ENE 15 20 8 11 1031.3 1031.4 0.0
31/07:30am 11.5 8.5 10.7 95 0.4 ENE 17 22 9 12 1031.2 1031.3 0.0
31/07:00am 11.4 8.8 10.6 95 0.4 ENE 15 19 8 10 1031.0 1031.1 0.0
31/06:30am 11.4 8.8 10.6 95 0.4 ENE 15 19 8 10 1031.2 1031.3 0.0
31/06:00am 11.4 9.1 10.5 94 0.5 ENE 13 17 7 9 1031.2 1031.3 0.0
31/05:30am 11.5 9.2 10.6 94 0.5 ENE 13 17 7 9 1031.2 1031.3 0.0
31/05:00am 11.8 9.2 10.7 93 0.6 NE 15 19 8 10 1031.1 1031.2 0.0
31/04:30am 11.8 9.1 10.5 92 0.7 ENE 15 19 8 10 1031.2 1031.3 0.0
31/04:00am 12.2 9.3 10.9 92 0.7 ENE 17 20 9 11 1031.2 1031.3 0.0
31/03:30am 12.4 9.5 11.1 92 0.7 ENE 17 19 9 10 1031.3 1031.4 0.0
31/03:00am 12.5 10.4 11.2 92 0.7 ENE 13 15 7 8 1031.6 1031.7 0.0
31/02:30am 12.4 11.0 11.0 91 0.7 NE 9 11 5 6 1031.9 1032.0 0.0
31/02:00am 12.5 10.7 10.9 90 0.8 NE 11 13 6 7 1032.0 1032.1 0.0
31/01:30am 12.6 10.5 11.0 90 0.8 NE 13 15 7 8 1032.2 1032.3 0.0
31/01:00am 12.7 10.5 10.9 89 0.9 ENE 13 17 7 9 1032.5 1032.6 0.0
31/12:30am 12.7 10.5 10.8 88 1.0 ENE 13 17 7 9 1032.6 1032.7 0.0
31/12:00am 12.8 10.6 10.9 88 1.0 ENE 13 17 7 9 1032.6 1032.7 0.0
 
Date/Time
CST
Temp
°C
App
Temp
°C
Dew
Point
°C
Rel
Hum
%
Delta-T
°C
Wind Press
QNH
hPa
Press
MSL
hPa
Rain since
9am
mm
Dir  Spd
km/h
Gust
km/h
Spd
kts
Gust
kts
30/11:30pm 12.7 10.1 10.8 88 1.0 ENE 15 17 8 9 1032.8 1032.9 0.0
30/11:00pm 12.8 10.2 10.7 87 1.1 E 15 17 8 9 1033.2 1033.3 0.0
30/10:30pm 12.8 10.6 10.7 87 1.1 E 13 19 7 10 1033.4 1033.5 0.0
30/10:00pm 12.8 9.8 10.7 87 1.1 E 17 19 9 10 1033.4 1033.5 0.0
30/09:30pm 12.8 10.2 10.7 87 1.1 E 15 17 8 9 1033.4 1033.5 0.0
30/09:00pm 12.8 10.2 10.7 87 1.1 ESE 15 19 8 10 1033.2 1033.3 0.0
30/08:30pm 12.7 10.4 10.6 87 1.1 ESE 13 15 7 8 1033.1 1033.2 0.0
30/08:00pm 12.7 10.5 10.8 88 1.0 ESE 13 17 7 9 1032.9 1033.0 0.0
30/07:30pm 12.6 10.4 10.7 88 1.0 ESE 13 17 7 9 1032.8 1032.9 0.0
30/07:00pm 12.5 10.2 10.6 88 1.0 ESE 13 17 7 9 1032.7 1032.8 0.0
30/06:30pm 12.4 10.4 10.3 87 1.1 ESE 11 15 6 8 1032.6 1032.7 0.0
30/06:00pm 12.5 10.5 10.2 86 1.2 ESE 11 15 6 8 1032.6 1032.7 0.0
30/05:30pm 12.5 10.1 10.0 85 1.3 ESE 13 15 7 8 1032.5 1032.6 0.0
30/05:00pm 12.8 11.1 10.0 83 1.4 ESE 9 13 5 7 1032.7 1032.8 0.0
30/04:30pm 13.2 11.6 10.2 82 1.5 ESE 9 13 5 7 1032.9 1033.0 0.0
30/04:00pm 13.6 12.1 10.4 81 1.7 SE 9 13 5 7 1033.1 1033.2 0.0
30/03:30pm 13.9 12.8 10.5 80 1.8 ESE 7 9 4 5 1033.2 1033.3 0.0
30/03:00pm 14.0 13.0 10.4 79 1.9 ESE 6 9 3 5 1033.4 1033.5 0.0
30/02:30pm 14.4 13.4 11.0 80 1.8 ESE 7 9 4 5 1033.4 1033.5 0.0
30/02:00pm 14.4 13.3 10.8 79 1.9 ESE 7 11 4 6 1033.6 1033.7 0.0
30/01:30pm 14.6 13.6 11.0 79 1.9 ESE 7 9 4 5 1034.1 1034.2 0.0
30/01:00pm 14.6 13.6 11.0 79 1.9 ESE 7 9 4 5 1034.3 1034.4 0.0
30/12:30pm 14.5 13.7 10.9 79 1.9 ESE 6 7 3 4 1034.5 1034.6 0.0
30/12:00pm 14.4 13.3 10.8 79 1.9 ENE 7 9 4 5 1034.8 1034.9 0.0
30/11:30am 14.6 13.2 11.0 79 1.9 ENE 9 11 5 6 1035.0 1035.1 0.0
30/11:00am 14.6 13.2 10.8 78 2.0 ENE 9 15 5 8 1035.1 1035.2 0.0
30/10:30am 14.3 12.7 10.3 77 2.1 E 9 13 5 7 1035.2 1035.3 0.0
30/10:00am 14.2 12.2 10.2 77 2.1 E 11 15 6 8 1035.5 1035.6 0.0
30/09:30am 14.0 12.0 10.0 77 2.1 E 11 17 6 9 1035.7 1035.8 0.0
30/09:00am 13.7 12.1 10.1 79 1.8 E 9 13 5 7 1035.6 1035.7 0.2
30/08:30am 13.7 11.3 10.1 79 1.8 E 13 17 7 9 1035.4 1035.5 0.2
30/08:00am 12.9 10.0 9.5 80 1.7 E 15 19 8 10 1035.3 1035.4 0.2
30/07:30am 13.0 10.1 9.8 81 1.6 E 15 19 8 10 1034.9 1035.0 0.2
30/07:00am 12.5 9.2 9.5 82 1.5 E 17 19 9 10 1034.6 1034.7 0.2
30/06:30am 12.2 9.5 9.0 81 1.6 ESE 13 17 7 9 1034.3 1034.4 0.2
30/06:00am 12.4 9.0 9.2 81 1.6 ESE 17 20 9 11 1034.3 1034.4 0.2
30/05:30am 12.4 9.4 9.2 81 1.6 ESE 15 20 8 11 1034.2 1034.3 0.2

Other formats

Comma delimited format used in spreadsheet applications
http://www.bom.gov.au/fwo/IDS60801/IDS60801.94822.axf

JavaScript Object Notation format (JSON) in row-major order
http://www.bom.gov.au/fwo/IDS60801/IDS60801.94822.json

Data quality

Most of these data are generated automatically and are frequently updated. Quality checks on data are not normally performed. It is possible for incorrect values to appear. Refer to information at About Latest Weather Observations and please check the disclaimer before using these data.